Big Bear Station Historical Data
Daily Summary for March 1, 2017 Units:  English    Metric   Both
« Previous Day
Next Day »
Daily Weekly Monthly Yearly Custom
  High: Low: Average:
Temperature: 47.7 °F 19.0 °F 30.1 °F
Dew Point: 21.3 °F 6.8 °F 15.6 °F
Humidity: 95 % 28 % 59 %
Wind Speed: 4.7 mph 0.0 mph 0.8 mph
Wind Gust: -999.0 mph - -
Wind:- - SSW
Pressure: 30.31 in 30.21 in -
Precipitation: 0.00 in    
Historical Graphs
 
 
Tabular Data for March 1, 2017
Time Temperature Dew Point Pressure Wind Wind Speed Wind Gust Humidity Rainfall Rate (Hourly)
00:03 22.5 °F 21.3 °F 30.21 in Calm   -999.0 mph 95 % 0 in
00:18 22.5 °F 21.3 °F 30.21 in Calm   -999.0 mph 95 % 0 in
00:33 22.1 °F 20.9 °F 30.21 in Calm   -999.0 mph 95 % 0 in
00:48 21.7 °F 20.2 °F 30.22 in Calm   -999.0 mph 94 % 0 in
01:04 22.1 °F 20.4 °F 30.22 in Calm   -999.0 mph 93 % 0 in
01:19 21.6 °F 19.6 °F 30.22 in Calm   -999.0 mph 92 % 0 in
01:34 21.7 °F 19.7 °F 30.22 in Calm   -999.0 mph 92 % 0 in
01:49 21.4 °F 19.2 °F 30.22 in Calm   -999.0 mph 91 % 0 in
02:04 20.8 °F 18.6 °F 30.22 in Calm   -999.0 mph 91 % 0 in
02:20 21.2 °F 19.2 °F 30.21 in Calm   -999.0 mph 92 % 0 in
02:35 21.2 °F 18.7 °F 30.22 in Calm   -999.0 mph 90 % 0 in
02:50 21.0 °F 18.3 °F 30.22 in Calm   -999.0 mph 89 % 0 in
03:05 21.2 °F 18.5 °F 30.22 in Calm   -999.0 mph 89 % 0 in
03:21 21.0 °F 18.3 °F 30.22 in Calm   -999.0 mph 89 % 0 in
03:36 20.1 °F 17.6 °F 30.22 in Calm   -999.0 mph 90 % 0 in
03:51 20.5 °F 17.5 °F 30.22 in Calm   -999.0 mph 88 % 0 in
04:06 20.1 °F 17.1 °F 30.23 in Calm   -999.0 mph 88 % 0 in
04:21 20.1 °F 17.1 °F 30.23 in Calm   -999.0 mph 88 % 0 in
04:37 20.1 °F 16.3 °F 30.24 in Calm   -999.0 mph 85 % 0 in
04:52 19.9 °F 16.4 °F 30.24 in Calm   -999.0 mph 86 % 0 in
05:07 20.3 °F 16.8 °F 30.24 in Calm   -999.0 mph 86 % 0 in
05:22 19.8 °F 16.3 °F 30.24 in Calm   -999.0 mph 86 % 0 in
05:37 19.4 °F 16.4 °F 30.25 in Calm   -999.0 mph 88 % 0 in
05:53 19.9 °F 16.9 °F 30.25 in Calm   -999.0 mph 88 % 0 in
06:08 19.8 °F 16.0 °F 30.25 in Calm   -999.0 mph 85 % 0 in
06:23 19.8 °F 15.5 °F 30.25 in Calm   -999.0 mph 83 % 0 in
06:38 20.1 °F 15.5 °F 30.25 in Calm   -999.0 mph 82 % 0 in
06:53 19.0 °F 15.2 °F 30.26 in Calm   -999.0 mph 85 % 0 in
07:09 20.1 °F 16.0 °F 30.27 in Calm   -999.0 mph 84 % 0 in
07:24 20.3 °F 16.5 °F 30.27 in Calm   -999.0 mph 85 % 0 in
07:39 21.2 °F 17.7 °F 30.28 in Calm   -999.0 mph 86 % 0 in
07:54 21.9 °F 18.1 °F 30.28 in Calm   -999.0 mph 85 % 0 in
08:09 23.5 °F 18.2 °F 30.29 in North 2.2 mph -999.0 mph 80 % 0 in
08:25 25.3 °F 19.7 °F 30.29 in Calm   -999.0 mph 79 % 0 in
08:40 26.8 °F 19.9 °F 30.29 in East 1.1 mph -999.0 mph 75 % 0 in
08:55 29.1 °F 19.5 °F 30.29 in Calm   -999.0 mph 67 % 0 in
09:11 31.5 °F 19.6 °F 30.29 in North 2.7 mph -999.0 mph 61 % 0 in
09:26 33.1 °F 19.1 °F 30.29 in NE 3.2 mph -999.0 mph 56 % 0 in
09:41 34.2 °F 18.4 °F 30.29 in North 2.2 mph -999.0 mph 52 % 0 in
09:56 37.6 °F 17.6 °F 30.30 in North 3.2 mph -999.0 mph 44 % 0 in
10:11 38.7 °F 17.6 °F 30.30 in NNW 4.7 mph -999.0 mph 42 % 0 in
10:27 40.1 °F 18.8 °F 30.30 in SSE 1.7 mph -999.0 mph 42 % 0 in
10:42 41.2 °F 20.4 °F 30.30 in NW 3.2 mph -999.0 mph 43 % 0 in
10:57 42.4 °F 19.2 °F 30.30 in NNW 3.2 mph -999.0 mph 39 % 0 in
11:12 43.0 °F 19.7 °F 30.30 in South 3.7 mph -999.0 mph 39 % 0 in
11:28 43.9 °F 21.1 °F 30.30 in NNW 2.2 mph -999.0 mph 40 % 0 in
11:43 44.4 °F 19.7 °F 30.29 in WNW 3.2 mph -999.0 mph 37 % 0 in
11:58 44.1 °F 19.5 °F 30.29 in WNW 3.2 mph -999.0 mph 37 % 0 in
12:13 44.1 °F 18.2 °F 30.29 in NE 1.1 mph -999.0 mph 35 % 0 in
12:28 44.8 °F 17.4 °F 30.28 in ENE 1.7 mph -999.0 mph 33 % 0 in
12:44 45.5 °F 17.3 °F 30.28 in SSE 1.7 mph -999.0 mph 32 % 0 in
12:59 46.2 °F 18.7 °F 30.28 in SSE 1.7 mph -999.0 mph 33 % 0 in
13:14 45.5 °F 17.3 °F 30.27 in SSE 2.2 mph -999.0 mph 32 % 0 in
13:29 47.7 °F 20.0 °F 30.27 in Calm   -999.0 mph 33 % 0 in
13:45 46.8 °F 19.2 °F 30.27 in ESE 2.2 mph -999.0 mph 33 % 0 in
14:00 44.6 °F 19.3 °F 30.27 in Calm   -999.0 mph 36 % 0 in
14:15 44.8 °F 17.4 °F 30.27 in SW 2.7 mph -999.0 mph 33 % 0 in
14:30 45.5 °F 19.4 °F 30.27 in NNE 1.7 mph -999.0 mph 35 % 0 in
14:46 44.8 °F 20.7 °F 30.27 in Calm   -999.0 mph 38 % 0 in
15:01 44.8 °F 16.7 °F 30.27 in ESE 1.7 mph -999.0 mph 32 % 0 in
15:17 44.8 °F 18.1 °F 30.27 in SE 2.7 mph -999.0 mph 34 % 0 in
15:32 44.1 °F 16.1 °F 30.27 in Calm   -999.0 mph 32 % 0 in
15:47 43.2 °F 12.3 °F 30.27 in ESE 1.7 mph -999.0 mph 28 % 0 in
16:02 42.4 °F 11.6 °F 30.27 in Calm   -999.0 mph 28 % 0 in
16:18 41.9 °F 11.1 °F 30.27 in Calm   -999.0 mph 28 % 0 in
16:33 40.8 °F 10.2 °F 30.27 in ENE 1.1 mph -999.0 mph 28 % 0 in
16:48 40.6 °F 10.0 °F 30.27 in East 2.7 mph -999.0 mph 28 % 0 in
17:03 39.0 °F 9.4 °F 30.27 in Calm   -999.0 mph 29 % 0 in
17:19 37.2 °F 12.0 °F 30.28 in Calm   -999.0 mph 35 % 0 in
17:34 35.6 °F 9.3 °F 30.28 in NW 1.1 mph -999.0 mph 33 % 0 in
17:49 34.3 °F 6.8 °F 30.28 in NNE 1.7 mph -999.0 mph 31 % 0 in
18:04 33.1 °F 8.4 °F 30.29 in Calm   -999.0 mph 35 % 0 in
18:19 32.2 °F 12.2 °F 30.29 in Calm   -999.0 mph 43 % 0 in
18:35 30.7 °F 12.3 °F 30.29 in Calm   -999.0 mph 46 % 0 in
18:50 29.8 °F 13.4 °F 30.29 in South 1.7 mph -999.0 mph 50 % 0 in
19:05 28.6 °F 12.3 °F 30.30 in South 1.1 mph -999.0 mph 50 % 0 in
19:20 27.5 °F 10.8 °F 30.30 in Calm   -999.0 mph 49 % 0 in
19:35 26.8 °F 10.6 °F 30.30 in South 1.7 mph -999.0 mph 50 % 0 in
19:51 26.4 °F 10.7 °F 30.30 in Calm   -999.0 mph 51 % 0 in
20:06 26.6 °F 11.3 °F 30.30 in Calm   -999.0 mph 52 % 0 in
20:21 26.1 °F 12.1 °F 30.31 in Calm   -999.0 mph 55 % 0 in
20:36 25.5 °F 10.7 °F 30.31 in Calm   -999.0 mph 53 % 0 in
20:51 25.0 °F 10.7 °F 30.31 in Calm   -999.0 mph 54 % 0 in
21:07 24.4 °F 9.7 °F 30.31 in Calm   -999.0 mph 53 % 0 in
21:22 24.6 °F 9.9 °F 30.31 in Calm   -999.0 mph 53 % 0 in
21:37 24.4 °F 8.8 °F 30.31 in Calm   -999.0 mph 51 % 0 in
21:52 25.0 °F 9.0 °F 30.31 in Calm   -999.0 mph 50 % 0 in
22:07 24.6 °F 9.9 °F 30.31 in Calm   -999.0 mph 53 % 0 in
22:23 24.3 °F 9.2 °F 30.31 in Calm   -999.0 mph 52 % 0 in
22:38 24.4 °F 9.3 °F 30.31 in Calm   -999.0 mph 52 % 0 in
22:53 24.3 °F 9.2 °F 30.31 in Calm   -999.0 mph 52 % 0 in
23:08 24.3 °F 10.4 °F 30.31 in Calm   -999.0 mph 55 % 0 in
23:24 23.4 °F 10.4 °F 30.31 in Calm   -999.0 mph 57 % 0 in
23:39 24.1 °F 11.1 °F 30.31 in Calm   -999.0 mph 57 % 0 in
23:54 24.3 °F 11.2 °F 30.31 in Calm   -999.0 mph 57 % 0 in
Big Bear CA Weather
Compliments of Weather Underground - 1.5 mb